sensor_id;sensor_type;location;lat;lon;timestamp;pressure;altitude;pressure_sealevel;temperature;humidity
10482;BME280;5288;42.334;23.876;2023-05-24T00:00:04;56258.94;;;-140.56;75.70
10482;BME280;5288;42.334;23.876;2023-05-24T00:02:34;56239.16;;;-140.56;75.02
10482;BME280;5288;42.334;23.876;2023-05-24T00:05:02;56249.03;;;-140.56;74.40
10482;BME280;5288;42.334;23.876;2023-05-24T00:07:29;56235.22;;;-140.56;75.26
10482;BME280;5288;42.334;23.876;2023-05-24T00:09:56;56251.03;;;-140.56;77.08
10482;BME280;5288;42.334;23.876;2023-05-24T00:12:24;56268.81;;;-140.56;78.14
10482;BME280;5288;42.334;23.876;2023-05-24T00:14:52;56266.81;;;-140.56;78.81
10482;BME280;5288;42.334;23.876;2023-05-24T00:17:19;56237.19;;;-140.56;79.15
10482;BME280;5288;42.334;23.876;2023-05-24T00:19:46;56270.78;;;-140.56;79.56
10482;BME280;5288;42.334;23.876;2023-05-24T00:22:14;56243.13;;;-140.56;79.72
10482;BME280;5288;42.334;23.876;2023-05-24T00:24:40;56247.06;;;-140.56;79.12
10482;BME280;5288;42.334;23.876;2023-05-24T00:27:07;56256.94;;;-140.56;79.26
10482;BME280;5288;42.334;23.876;2023-05-24T00:29:36;56272.75;;;-140.56;79.47
10482;BME280;5288;42.334;23.876;2023-05-24T00:32:05;56268.81;;;-140.56;79.19
10482;BME280;5288;42.334;23.876;2023-05-24T00:34:32;56262.88;;;-140.56;79.68
10482;BME280;5288;42.334;23.876;2023-05-24T00:36:59;56247.06;;;-140.56;79.51
10482;BME280;5288;42.334;23.876;2023-05-24T00:39:25;56239.16;;;-140.56;79.02
10482;BME280;5288;42.334;23.876;2023-05-24T00:41:52;56258.94;;;-140.56;79.26
10482;BME280;5288;42.334;23.876;2023-05-24T00:44:19;56292.53;;;-140.56;79.57
10482;BME280;5288;42.334;23.876;2023-05-24T00:46:46;56266.81;;;-140.56;80.11
10482;BME280;5288;42.334;23.876;2023-05-24T00:49:15;56280.66;;;-140.56;80.58
10482;BME280;5288;42.334;23.876;2023-05-24T00:51:42;56278.69;;;-140.56;80.41
10482;BME280;5288;42.334;23.876;2023-05-24T00:54:09;56276.72;;;-140.56;80.28
10482;BME280;5288;42.334;23.876;2023-05-24T00:56:39;56253.00;;;-140.56;78.97
10482;BME280;5288;42.334;23.876;2023-05-24T00:59:07;56264.84;;;-140.56;78.34
10482;BME280;5288;42.334;23.876;2023-05-24T01:01:34;56247.06;;;-140.56;78.67
10482;BME280;5288;42.334;23.876;2023-05-24T01:04:02;56254.97;;;-140.56;78.35
10482;BME280;5288;42.334;23.876;2023-05-24T01:06:31;56245.09;;;-140.56;78.36
10482;BME280;5288;42.334;23.876;2023-05-24T01:09:16;56286.59;;;-140.56;78.10
10482;BME280;5288;42.334;23.876;2023-05-24T01:11:58;56288.56;;;-140.56;78.69
10482;BME280;5288;42.334;23.876;2023-05-24T01:14:28;56298.44;;;-140.56;78.75
10482;BME280;5288;42.334;23.876;2023-05-24T01:17:03;56292.53;;;-140.56;79.24
10482;BME280;5288;42.334;23.876;2023-05-24T01:19:51;56284.63;;;-140.56;79.91
10482;BME280;5288;42.334;23.876;2023-05-24T01:28:38;56264.84;;;-140.56;80.30
10482;BME280;5288;42.334;23.876;2023-05-24T01:31:05;56268.81;;;-140.56;80.08
10482;BME280;5288;42.334;23.876;2023-05-24T01:33:32;56282.63;;;-140.56;79.78
10482;BME280;5288;42.334;23.876;2023-05-24T01:36:00;56258.94;;;-140.56;80.06
10482;BME280;5288;42.334;23.876;2023-05-24T01:38:27;56227.31;;;-140.56;79.96
10482;BME280;5288;42.334;23.876;2023-05-24T01:40:58;56288.56;;;-140.56;78.61
10482;BME280;5288;42.334;23.876;2023-05-24T01:43:32;56292.53;;;-140.56;77.61
10482;BME280;5288;42.334;23.876;2023-05-24T01:46:09;56270.78;;;-140.56;77.68
10482;BME280;5288;42.334;23.876;2023-05-24T01:48:47;56318.22;;;-140.56;79.76
10482;BME280;5288;42.334;23.876;2023-05-24T01:51:23;56274.72;;;-140.56;80.99
10482;BME280;5288;42.334;23.876;2023-05-24T01:53:51;56278.69;;;-140.56;81.53
10482;BME280;5288;42.334;23.876;2023-05-24T01:56:19;56292.53;;;-140.56;82.46
10482;BME280;5288;42.334;23.876;2023-05-24T01:58:49;56258.94;;;-140.56;84.24
10482;BME280;5288;42.334;23.876;2023-05-24T02:01:19;56302.41;;;-140.56;84.95
10482;BME280;5288;42.334;23.876;2023-05-24T02:03:46;56274.72;;;-140.56;85.10
10482;BME280;5288;42.334;23.876;2023-05-24T02:06:13;56278.69;;;-140.56;85.78
10482;BME280;5288;42.334;23.876;2023-05-24T02:08:40;56302.41;;;-140.56;86.11
10482;BME280;5288;42.334;23.876;2023-05-24T02:11:07;56306.34;;;-140.56;86.46
10482;BME280;5288;42.334;23.876;2023-05-24T02:13:34;56322.16;;;-140.56;86.20
10482;BME280;5288;42.334;23.876;2023-05-24T02:16:01;56270.78;;;-140.56;86.54
10482;BME280;5288;42.334;23.876;2023-05-24T02:18:30;56270.78;;;-140.56;86.61
10482;BME280;5288;42.334;23.876;2023-05-24T02:20:59;56306.34;;;-140.56;86.45
10482;BME280;5288;42.334;23.876;2023-05-24T02:23:26;56278.69;;;-140.56;86.92
10482;BME280;5288;42.334;23.876;2023-05-24T02:25:54;56262.88;;;-140.56;87.03
10482;BME280;5288;42.334;23.876;2023-05-24T02:28:21;56314.25;;;-140.56;87.03
10482;BME280;5288;42.334;23.876;2023-05-24T02:30:48;56306.34;;;-140.56;87.30
10482;BME280;5288;42.334;23.876;2023-05-24T02:33:15;56282.63;;;-140.56;86.97
10482;BME280;5288;42.334;23.876;2023-05-24T02:35:44;56282.63;;;-140.56;86.62
10482;BME280;5288;42.334;23.876;2023-05-24T02:38:10;56284.63;;;-140.56;86.70
10482;BME280;5288;42.334;23.876;2023-05-24T02:40:37;56288.56;;;-140.56;87.03
10482;BME280;5288;42.334;23.876;2023-05-24T02:43:04;56326.13;;;-140.56;87.21
10482;BME280;5288;42.334;23.876;2023-05-24T02:45:31;56290.53;;;-140.56;87.08
10482;BME280;5288;42.334;23.876;2023-05-24T02:47:58;56286.59;;;-140.56;87.50
10482;BME280;5288;42.334;23.876;2023-05-24T02:50:25;56264.84;;;-140.56;87.35
10482;BME280;5288;42.334;23.876;2023-05-24T02:52:53;56290.53;;;-140.56;87.47
10482;BME280;5288;42.334;23.876;2023-05-24T02:55:20;56294.50;;;-140.56;87.37
10482;BME280;5288;42.334;23.876;2023-05-24T02:57:47;56290.53;;;-140.56;86.96
10482;BME280;5288;42.334;23.876;2023-05-24T03:00:15;56286.59;;;-140.56;87.01
10482;BME280;5288;42.334;23.876;2023-05-24T03:02:43;56270.78;;;-140.56;86.97
10482;BME280;5288;42.334;23.876;2023-05-24T03:05:12;56282.63;;;-140.56;87.09
10482;BME280;5288;42.334;23.876;2023-05-24T03:07:39;56262.88;;;-140.56;86.91
10482;BME280;5288;42.334;23.876;2023-05-24T03:10:08;56308.34;;;-140.56;86.35
10482;BME280;5288;42.334;23.876;2023-05-24T03:12:35;56278.69;;;-140.56;86.27
10482;BME280;5288;42.334;23.876;2023-05-24T03:15:03;56320.19;;;-140.56;86.20
10482;BME280;5288;42.334;23.876;2023-05-24T03:17:30;56280.66;;;-140.56;86.28
10482;BME280;5288;42.334;23.876;2023-05-24T03:19:57;56298.44;;;-140.56;86.20
10482;BME280;5288;42.334;23.876;2023-05-24T03:22:24;56262.88;;;-140.56;85.72
10482;BME280;5288;42.334;23.876;2023-05-24T03:24:51;56304.38;;;-140.56;85.53
10482;BME280;5288;42.334;23.876;2023-05-24T03:27:19;56298.44;;;-140.56;85.19
10482;BME280;5288;42.334;23.876;2023-05-24T03:29:46;56300.44;;;-140.56;85.59
10482;BME280;5288;42.334;23.876;2023-05-24T03:32:13;56294.50;;;-140.56;85.96
10482;BME280;5288;42.334;23.876;2023-05-24T03:34:40;56290.53;;;-140.56;86.52
10482;BME280;5288;42.334;23.876;2023-05-24T03:37:07;56274.72;;;-140.56;86.24
10482;BME280;5288;42.334;23.876;2023-05-24T03:39:34;56310.31;;;-140.56;85.96
10482;BME280;5288;42.334;23.876;2023-05-24T03:42:01;56296.47;;;-140.56;85.36
10482;BME280;5288;42.334;23.876;2023-05-24T03:44:29;56276.72;;;-140.56;85.12
10482;BME280;5288;42.334;23.876;2023-05-24T03:46:56;56310.31;;;-140.56;84.94
10482;BME280;5288;42.334;23.876;2023-05-24T03:49:23;56286.59;;;-140.56;85.56
10482;BME280;5288;42.334;23.876;2023-05-24T03:51:50;56322.16;;;-140.56;85.36
10482;BME280;5288;42.334;23.876;2023-05-24T03:54:17;56306.34;;;-140.56;85.41
10482;BME280;5288;42.334;23.876;2023-05-24T03:56:43;56308.34;;;-140.56;85.19
10482;BME280;5288;42.334;23.876;2023-05-24T03:59:10;56278.69;;;-140.56;85.03
10482;BME280;5288;42.334;23.876;2023-05-24T04:01:39;56298.44;;;-140.56;84.66
10482;BME280;5288;42.334;23.876;2023-05-24T04:04:06;56276.72;;;-140.56;84.20
10482;BME280;5288;42.334;23.876;2023-05-24T04:06:33;56286.59;;;-140.56;84.60
10482;BME280;5288;42.334;23.876;2023-05-24T04:09:01;56284.63;;;-140.56;84.70
10482;BME280;5288;42.334;23.876;2023-05-24T04:11:30;56310.31;;;-140.56;84.69
10482;BME280;5288;42.334;23.876;2023-05-24T04:13:57;56276.72;;;-140.56;84.47
10482;BME280;5288;42.334;23.876;2023-05-24T04:16:25;56278.69;;;-140.56;84.17
10482;BME280;5288;42.334;23.876;2023-05-24T04:18:55;56278.69;;;-140.56;83.81
10482;BME280;5288;42.334;23.876;2023-05-24T04:21:22;56276.72;;;-140.56;83.73
10482;BME280;5288;42.334;23.876;2023-05-24T04:23:49;56268.81;;;-140.56;84.21
10482;BME280;5288;42.334;23.876;2023-05-24T04:26:16;56268.81;;;-140.56;84.71
10482;BME280;5288;42.334;23.876;2023-05-24T04:28:43;56266.81;;;-140.56;84.73
10482;BME280;5288;42.334;23.876;2023-05-24T04:31:11;56260.91;;;-140.56;85.00
10482;BME280;5288;42.334;23.876;2023-05-24T04:33:38;56251.03;;;-140.56;84.66
10482;BME280;5288;42.334;23.876;2023-05-24T04:36:07;56278.69;;;-140.56;84.99
10482;BME280;5288;42.334;23.876;2023-05-24T04:38:35;56290.53;;;-140.56;84.61
10482;BME280;5288;42.334;23.876;2023-05-24T04:41:03;56292.53;;;-140.56;84.65
10482;BME280;5288;42.334;23.876;2023-05-24T04:43:31;56272.75;;;-140.56;84.56
10482;BME280;5288;42.334;23.876;2023-05-24T04:45:58;56294.50;;;-140.56;83.96
10482;BME280;5288;42.334;23.876;2023-05-24T04:48:25;56280.66;;;-140.56;83.16
10482;BME280;5288;42.334;23.876;2023-05-24T04:50:52;56272.75;;;-140.56;82.46
10482;BME280;5288;42.334;23.876;2023-05-24T04:53:21;56268.81;;;-140.56;82.04
10482;BME280;5288;42.334;23.876;2023-05-24T04:55:49;56284.63;;;-140.56;81.96
10482;BME280;5288;42.334;23.876;2023-05-24T04:58:16;56272.75;;;-140.56;81.22
10482;BME280;5288;42.334;23.876;2023-05-24T05:00:44;56280.66;;;-140.56;80.67
10482;BME280;5288;42.334;23.876;2023-05-24T05:03:11;56239.16;;;-140.56;79.81
10482;BME280;5288;42.334;23.876;2023-05-24T05:05:38;56245.09;;;-140.56;78.97
10482;BME280;5288;42.334;23.876;2023-05-24T05:08:05;56262.88;;;-140.56;77.89
10482;BME280;5288;42.334;23.876;2023-05-24T05:10:34;56239.16;;;-140.56;77.07
10482;BME280;5288;42.334;23.876;2023-05-24T05:13:01;56262.88;;;-140.56;76.07
10482;BME280;5288;42.334;23.876;2023-05-24T05:15:29;56223.34;;;-140.56;75.84
10482;BME280;5288;42.334;23.876;2023-05-24T05:17:55;56233.22;;;-140.56;74.95
10482;BME280;5288;42.334;23.876;2023-05-24T05:20:24;56256.94;;;-140.56;74.26
10482;BME280;5288;42.334;23.876;2023-05-24T05:22:51;56231.25;;;-140.56;73.50
10482;BME280;5288;42.334;23.876;2023-05-24T05:25:18;56219.41;;;-140.56;72.85
10482;BME280;5288;42.334;23.876;2023-05-24T05:27:47;56191.72;;;-140.56;72.43
10482;BME280;5288;42.334;23.876;2023-05-24T05:30:14;56213.47;;;-140.56;71.87
10482;BME280;5288;42.334;23.876;2023-05-24T05:32:41;56213.47;;;-140.56;71.42
10482;BME280;5288;42.334;23.876;2023-05-24T05:35:08;56171.97;;;-140.56;70.44
10482;BME280;5288;42.334;23.876;2023-05-24T05:37:35;56201.63;;;-140.56;69.66
10482;BME280;5288;42.334;23.876;2023-05-24T05:40:02;56195.69;;;-140.56;69.09
10482;BME280;5288;42.334;23.876;2023-05-24T05:42:29;56225.31;;;-140.56;68.35
10482;BME280;5288;42.334;23.876;2023-05-24T05:44:57;56185.81;;;-140.56;68.09
10482;BME280;5288;42.334;23.876;2023-05-24T05:47:44;56189.75;;;-140.56;67.73
10482;BME280;5288;42.334;23.876;2023-05-24T05:50:24;56177.91;;;-140.56;67.10
10482;BME280;5288;42.334;23.876;2023-05-24T05:53:11;56179.88;;;-140.56;65.65
10482;BME280;5288;42.334;23.876;2023-05-24T05:55:38;56162.09;;;-140.56;65.09
10482;BME280;5288;42.334;23.876;2023-05-24T05:58:05;56144.31;;;-140.56;63.24
10482;BME280;5288;42.334;23.876;2023-05-24T06:00:33;56150.22;;;-140.56;63.81
10482;BME280;5288;42.334;23.876;2023-05-24T06:03:00;56160.13;;;-140.56;63.58
10482;BME280;5288;42.334;23.876;2023-05-24T06:05:27;56124.53;;;-140.56;62.70
10482;BME280;5288;42.334;23.876;2023-05-24T06:07:54;56136.41;;;-140.56;63.04
10482;BME280;5288;42.334;23.876;2023-05-24T06:10:39;56152.22;;;-140.56;62.25
10482;BME280;5288;42.334;23.876;2023-05-24T06:13:06;56106.75;;;-140.56;60.81
10482;BME280;5288;42.334;23.876;2023-05-24T06:15:35;56122.56;;;-140.56;60.04
10482;BME280;5288;42.334;23.876;2023-05-24T06:18:02;56102.81;;;-140.56;60.50
10482;BME280;5288;42.334;23.876;2023-05-24T06:20:29;56164.06;;;-140.56;59.72
10482;BME280;5288;42.334;23.876;2023-05-24T06:22:56;56100.81;;;-140.56;59.83
10482;BME280;5288;42.334;23.876;2023-05-24T06:25:23;56114.66;;;-140.56;59.63
10482;BME280;5288;42.334;23.876;2023-05-24T06:27:51;56148.25;;;-140.56;58.66
10482;BME280;5288;42.334;23.876;2023-05-24T06:30:19;56112.69;;;-140.56;58.57
10482;BME280;5288;42.334;23.876;2023-05-24T06:32:47;56140.34;;;-140.56;58.28
10482;BME280;5288;42.334;23.876;2023-05-24T06:35:14;56126.50;;;-140.56;57.92
10482;BME280;5288;42.334;23.876;2023-05-24T06:37:41;56096.88;;;-140.56;56.43
10482;BME280;5288;42.334;23.876;2023-05-24T06:40:09;56088.97;;;-140.56;55.85
10482;BME280;5288;42.334;23.876;2023-05-24T06:42:37;56088.97;;;-140.56;55.01
10482;BME280;5288;42.334;23.876;2023-05-24T06:45:05;56087.00;;;-140.56;55.11
10482;BME280;5288;42.334;23.876;2023-05-24T06:47:32;56079.09;;;-140.56;55.77
10482;BME280;5288;42.334;23.876;2023-05-24T06:50:01;56108.72;;;-140.56;53.79
10482;BME280;5288;42.334;23.876;2023-05-24T06:52:28;56057.34;;;-140.56;55.41
10482;BME280;5288;42.334;23.876;2023-05-24T06:54:55;56104.78;;;-140.56;54.69
10482;BME280;5288;42.334;23.876;2023-05-24T06:57:22;56055.38;;;-140.56;52.43
10482;BME280;5288;42.334;23.876;2023-05-24T06:59:49;56041.53;;;-140.56;50.28
10482;BME280;5288;42.334;23.876;2023-05-24T07:02:16;56073.16;;;-140.56;51.75
10482;BME280;5288;42.334;23.876;2023-05-24T07:04:43;56061.31;;;-140.56;51.72
10482;BME280;5288;42.334;23.876;2023-05-24T07:07:12;56061.31;;;-140.56;50.27
10482;BME280;5288;42.334;23.876;2023-05-24T07:09:39;56035.63;;;-140.56;49.22
10482;BME280;5288;42.334;23.876;2023-05-24T07:12:07;56043.50;;;-140.56;49.04
10482;BME280;5288;42.334;23.876;2023-05-24T07:14:34;56015.84;;;-140.56;48.79
10482;BME280;5288;42.334;23.876;2023-05-24T07:17:04;56025.72;;;-140.56;49.42
10482;BME280;5288;42.334;23.876;2023-05-24T07:19:31;56023.75;;;-140.56;50.40
10482;BME280;5288;42.334;23.876;2023-05-24T07:22:00;55986.22;;;-140.56;48.56
10482;BME280;5288;42.334;23.876;2023-05-24T07:24:31;56004.00;;;-140.56;47.76
10482;BME280;5288;42.334;23.876;2023-05-24T07:27:00;56015.84;;;-140.56;45.47
10482;BME280;5288;42.334;23.876;2023-05-24T07:29:27;56027.72;;;-140.56;47.38
10482;BME280;5288;42.334;23.876;2023-05-24T07:31:54;56015.84;;;-140.56;47.91
10482;BME280;5288;42.334;23.876;2023-05-24T07:34:22;55992.13;;;-140.56;47.08
10482;BME280;5288;42.334;23.876;2023-05-24T07:36:51;56002.00;;;-140.56;43.71
10482;BME280;5288;42.334;23.876;2023-05-24T07:39:18;55984.22;;;-140.56;43.02
10482;BME280;5288;42.334;23.876;2023-05-24T07:41:47;55986.22;;;-140.56;42.24
10482;BME280;5288;42.334;23.876;2023-05-24T07:44:15;56002.00;;;-140.56;43.88
10482;BME280;5288;42.334;23.876;2023-05-24T07:46:42;55970.41;;;-140.56;41.48
10482;BME280;5288;42.334;23.876;2023-05-24T07:49:09;55980.28;;;-140.56;39.52
10482;BME280;5288;42.334;23.876;2023-05-24T07:51:36;55972.38;;;-140.56;39.01
10482;BME280;5288;42.334;23.876;2023-05-24T07:54:04;55970.41;;;-140.56;40.24
10482;BME280;5288;42.334;23.876;2023-05-24T07:56:31;55978.31;;;-140.56;39.58
10482;BME280;5288;42.334;23.876;2023-05-24T07:58:59;55970.41;;;-140.56;40.42
10482;BME280;5288;42.334;23.876;2023-05-24T08:01:29;55950.63;;;-140.56;39.26
10482;BME280;5288;42.334;23.876;2023-05-24T08:03:56;55950.63;;;-140.56;37.30
10482;BME280;5288;42.334;23.876;2023-05-24T08:06:23;55964.47;;;-140.56;37.73
10482;BME280;5288;42.334;23.876;2023-05-24T08:08:50;55938.78;;;-140.56;36.72
10482;BME280;5288;42.334;23.876;2023-05-24T08:11:18;55958.53;;;-140.56;37.01
10482;BME280;5288;42.334;23.876;2023-05-24T08:13:45;55946.69;;;-140.56;38.17
10482;BME280;5288;42.334;23.876;2023-05-24T08:16:13;55922.97;;;-140.56;37.30
10482;BME280;5288;42.334;23.876;2023-05-24T08:18:40;55956.56;;;-140.56;35.92
10482;BME280;5288;42.334;23.876;2023-05-24T08:21:07;55964.47;;;-140.56;36.34
10482;BME280;5288;42.334;23.876;2023-05-24T08:23:36;55964.47;;;-140.56;38.41
10482;BME280;5288;42.334;23.876;2023-05-24T08:26:03;55948.66;;;-140.56;36.95
10482;BME280;5288;42.334;23.876;2023-05-24T08:28:30;55930.88;;;-140.56;36.67
10482;BME280;5288;42.334;23.876;2023-05-24T08:30:57;55921.00;;;-140.56;36.39
10482;BME280;5288;42.334;23.876;2023-05-24T08:33:26;55911.13;;;-140.56;35.87
10482;BME280;5288;42.334;23.876;2023-05-24T08:35:53;55934.81;;;-140.56;36.45
10482;BME280;5288;42.334;23.876;2023-05-24T08:38:20;55954.59;;;-140.56;35.91
10482;BME280;5288;42.334;23.876;2023-05-24T08:40:47;55946.69;;;-140.56;36.39
10482;BME280;5288;42.334;23.876;2023-05-24T08:43:14;55942.72;;;-140.56;35.71
10482;BME280;5288;42.334;23.876;2023-05-24T08:45:42;55917.03;;;-140.56;36.30
10482;BME280;5288;42.334;23.876;2023-05-24T08:48:09;55891.34;;;-140.56;35.52
10482;BME280;5288;42.334;23.876;2023-05-24T08:50:39;55897.28;;;-140.56;35.95
10482;BME280;5288;42.334;23.876;2023-05-24T08:53:06;55922.97;;;-140.56;35.15
10482;BME280;5288;42.334;23.876;2023-05-24T08:55:34;55893.34;;;-140.56;35.33
10482;BME280;5288;42.334;23.876;2023-05-24T08:58:01;55907.16;;;-140.56;35.79
10482;BME280;5288;42.334;23.876;2023-05-24T09:00:29;55883.44;;;-140.56;33.96
10482;BME280;5288;42.334;23.876;2023-05-24T09:02:57;55875.53;;;-140.56;34.06
10482;BME280;5288;42.334;23.876;2023-05-24T09:05:26;55885.44;;;-140.56;33.72
10482;BME280;5288;42.334;23.876;2023-05-24T09:07:58;55903.22;;;-140.56;36.47
10482;BME280;5288;42.334;23.876;2023-05-24T09:10:27;55889.38;;;-140.56;34.20
10482;BME280;5288;42.334;23.876;2023-05-24T09:12:55;55845.91;;;-140.56;34.73
10482;BME280;5288;42.334;23.876;2023-05-24T09:15:23;55847.88;;;-140.56;32.91
10482;BME280;5288;42.334;23.876;2023-05-24T09:17:52;55865.66;;;-140.56;32.96
10482;BME280;5288;42.334;23.876;2023-05-24T09:20:19;55845.91;;;-140.56;33.75
10482;BME280;5288;42.334;23.876;2023-05-24T09:22:50;55911.13;;;-140.56;33.51
10482;BME280;5288;42.334;23.876;2023-05-24T09:25:20;55881.47;;;-140.56;33.82
10482;BME280;5288;42.334;23.876;2023-05-24T09:27:50;55867.63;;;-140.56;33.69
10482;BME280;5288;42.334;23.876;2023-05-24T09:30:18;55859.75;;;-140.56;33.07
10482;BME280;5288;42.334;23.876;2023-05-24T09:32:56;55869.63;;;-140.56;32.16
10482;BME280;5288;42.334;23.876;2023-05-24T09:35:23;55838.00;;;-140.56;35.87
10482;BME280;5288;42.334;23.876;2023-05-24T09:37:53;55875.53;;;-140.56;35.25
10482;BME280;5288;42.334;23.876;2023-05-24T09:40:23;55911.13;;;-140.56;34.65
10482;BME280;5288;42.334;23.876;2023-05-24T09:43:04;55885.44;;;-140.56;35.78
10482;BME280;5288;42.334;23.876;2023-05-24T09:45:40;55873.56;;;-140.56;34.25
10482;BME280;5288;42.334;23.876;2023-05-24T09:48:09;55879.50;;;-140.56;34.55
10482;BME280;5288;42.334;23.876;2023-05-24T09:50:37;55857.75;;;-140.56;32.38
10482;BME280;5288;42.334;23.876;2023-05-24T09:53:04;55865.66;;;-140.56;33.32
10482;BME280;5288;42.334;23.876;2023-05-24T09:55:34;55879.50;;;-140.56;33.47
10482;BME280;5288;42.334;23.876;2023-05-24T09:58:03;55879.50;;;-140.56;34.65
10482;BME280;5288;42.334;23.876;2023-05-24T10:00:33;55867.63;;;-140.56;33.39
10482;BME280;5288;42.334;23.876;2023-05-24T10:03:02;55867.63;;;-140.56;33.31
10482;BME280;5288;42.334;23.876;2023-05-24T10:05:29;55865.66;;;-140.56;34.60
10482;BME280;5288;42.334;23.876;2023-05-24T10:07:57;55871.59;;;-140.56;33.90
10482;BME280;5288;42.334;23.876;2023-05-24T10:10:26;55891.34;;;-140.56;33.59
10482;BME280;5288;42.334;23.876;2023-05-24T10:12:56;55847.88;;;-140.56;34.36
10482;BME280;5288;42.334;23.876;2023-05-24T10:15:23;55857.75;;;-140.56;33.71
10482;BME280;5288;42.334;23.876;2023-05-24T10:17:51;55836.03;;;-140.56;34.34
10482;BME280;5288;42.334;23.876;2023-05-24T10:20:18;55847.88;;;-140.56;33.02
10482;BME280;5288;42.334;23.876;2023-05-24T10:22:46;55843.94;;;-140.56;33.34
10482;BME280;5288;42.334;23.876;2023-05-24T10:25:17;55855.78;;;-140.56;34.45
10482;BME280;5288;42.334;23.876;2023-05-24T10:27:47;55818.25;;;-140.56;35.30
10482;BME280;5288;42.334;23.876;2023-05-24T10:30:23;55857.75;;;-140.56;33.90
10482;BME280;5288;42.334;23.876;2023-05-24T10:32:52;55851.84;;;-140.56;32.16
10482;BME280;5288;42.334;23.876;2023-05-24T10:35:21;55818.25;;;-140.56;32.66
10482;BME280;5288;42.334;23.876;2023-05-24T10:37:49;55859.75;;;-140.56;33.51
10482;BME280;5288;42.334;23.876;2023-05-24T10:40:17;55877.53;;;-140.56;33.65
10482;BME280;5288;42.334;23.876;2023-05-24T10:42:45;55869.63;;;-140.56;34.00
10482;BME280;5288;42.334;23.876;2023-05-24T10:45:32;55855.78;;;-140.56;34.66
10482;BME280;5288;42.334;23.876;2023-05-24T10:48:33;55847.88;;;-140.56;33.48
10482;BME280;5288;42.334;23.876;2023-05-24T10:51:32;55828.13;;;-140.56;34.24
10482;BME280;5288;42.334;23.876;2023-05-24T10:54:14;55843.94;;;-140.56;34.09
10482;BME280;5288;42.334;23.876;2023-05-24T10:56:44;55901.22;;;-140.56;33.37
10482;BME280;5288;42.334;23.876;2023-05-24T10:59:31;55873.56;;;-140.56;34.23
10482;BME280;5288;42.334;23.876;2023-05-24T11:02:04;55903.22;;;-140.56;35.11
10482;BME280;5288;42.334;23.876;2023-05-24T11:04:36;55926.94;;;-140.56;37.01
10482;BME280;5288;42.334;23.876;2023-05-24T11:07:06;55903.22;;;-140.56;36.57
10482;BME280;5288;42.334;23.876;2023-05-24T11:09:35;55942.72;;;-140.56;37.25
10482;BME280;5288;42.334;23.876;2023-05-24T11:12:05;55921.00;;;-140.56;37.71
10482;BME280;5288;42.334;23.876;2023-05-24T11:14:35;55964.47;;;-140.56;37.61
10482;BME280;5288;42.334;23.876;2023-05-24T11:17:04;55938.78;;;-140.56;38.48
10482;BME280;5288;42.334;23.876;2023-05-24T11:19:33;55922.97;;;-140.56;38.99
10482;BME280;5288;42.334;23.876;2023-05-24T11:22:02;55924.94;;;-140.56;38.87
10482;BME280;5288;42.334;23.876;2023-05-24T11:24:31;55958.53;;;-140.56;39.62
10482;BME280;5288;42.334;23.876;2023-05-24T11:26:59;55978.31;;;-140.56;41.28
10482;BME280;5288;42.334;23.876;2023-05-24T11:29:27;55964.47;;;-140.56;41.88
10482;BME280;5288;42.334;23.876;2023-05-24T11:31:56;55992.13;;;-140.56;43.16
10482;BME280;5288;42.334;23.876;2023-05-24T11:34:27;55998.06;;;-140.56;44.82
10482;BME280;5288;42.334;23.876;2023-05-24T11:36:54;55990.16;;;-140.56;44.15
10482;BME280;5288;42.334;23.876;2023-05-24T11:39:21;56025.72;;;-140.56;44.15
10482;BME280;5288;42.334;23.876;2023-05-24T11:41:52;56011.91;;;-140.56;44.59
10482;BME280;5288;42.334;23.876;2023-05-24T11:44:19;55998.06;;;-140.56;43.73
10482;BME280;5288;42.334;23.876;2023-05-24T11:46:46;55978.31;;;-140.56;43.43
10482;BME280;5288;42.334;23.876;2023-05-24T11:49:14;56002.00;;;-140.56;43.25
10482;BME280;5288;42.334;23.876;2023-05-24T11:51:42;55970.41;;;-140.56;42.06
10482;BME280;5288;42.334;23.876;2023-05-24T11:54:09;55994.13;;;-140.56;42.79
10482;BME280;5288;42.334;23.876;2023-05-24T11:56:37;55978.31;;;-140.56;43.35
10482;BME280;5288;42.334;23.876;2023-05-24T11:59:13;55958.53;;;-140.56;42.34
10482;BME280;5288;42.334;23.876;2023-05-24T12:01:41;55950.63;;;-140.56;40.14
10482;BME280;5288;42.334;23.876;2023-05-24T12:04:08;55966.44;;;-140.56;39.96
10482;BME280;5288;42.334;23.876;2023-05-24T12:06:37;55976.31;;;-140.56;39.54
10482;BME280;5288;42.334;23.876;2023-05-24T12:09:05;55938.78;;;-140.56;39.00
10482;BME280;5288;42.334;23.876;2023-05-24T12:11:38;55899.25;;;-140.56;39.22
10482;BME280;5288;42.334;23.876;2023-05-24T12:14:06;55909.13;;;-140.56;35.79
10482;BME280;5288;42.334;23.876;2023-05-24T12:16:36;55889.38;;;-140.56;34.70
10482;BME280;5288;42.334;23.876;2023-05-24T12:19:04;55889.38;;;-140.56;35.67
10482;BME280;5288;42.334;23.876;2023-05-24T12:21:31;55869.63;;;-140.56;35.66
10482;BME280;5288;42.334;23.876;2023-05-24T12:24:10;55845.91;;;-140.56;34.45
10482;BME280;5288;42.334;23.876;2023-05-24T12:26:40;55822.19;;;-140.56;31.43
10482;BME280;5288;42.334;23.876;2023-05-24T12:29:08;55845.91;;;-140.56;31.22
10482;BME280;5288;42.334;23.876;2023-05-24T12:31:36;55826.16;;;-140.56;32.50
10482;BME280;5288;42.334;23.876;2023-05-24T12:34:03;55798.47;;;-140.56;31.07
10482;BME280;5288;42.334;23.876;2023-05-24T12:36:32;55772.78;;;-140.56;31.46
10482;BME280;5288;42.334;23.876;2023-05-24T12:39:04;55758.97;;;-140.56;29.35
10482;BME280;5288;42.334;23.876;2023-05-24T12:41:43;55741.19;;;-140.56;29.76
10482;BME280;5288;42.334;23.876;2023-05-24T12:44:10;55814.28;;;-140.56;29.19
10482;BME280;5288;42.334;23.876;2023-05-24T12:46:37;55751.06;;;-140.56;30.44
10482;BME280;5288;42.334;23.876;2023-05-24T12:49:04;55762.91;;;-140.56;28.82
10482;BME280;5288;42.334;23.876;2023-05-24T12:51:31;55766.88;;;-140.56;30.71
10482;BME280;5288;42.334;23.876;2023-05-24T12:53:58;55802.44;;;-140.56;30.58